Etusivu
METAR-TAF:

METAR-TAF

Lentoasemat :

Røros, Norja

Leveyspiiri: 62-35N, Pituuspiiri: 011-21E, korkeus merenpinnasta: 626 m

Tämänhetkinen sää

Tämä raportti tehtiin 41 minuuttia sitten, kello 17.20 UTC
Tuuli 9 kn idästä/kaakosta
Lämpötila -6°C
Kosteus 86%
Ilmanpaine 1023 hPa
Näkyvyys 10 km tai enemmän
Pilvistä 2100 ft:n korkeudessa
heikkoja lumikuuroja

METAR: ENRO 191720Z 11009KT 9999 -SHSN OVC021 M06/M08 Q1023

Aika: 19:01 (18:01 UTC)

Sääennuste

Tämä raportti tehtiin 7 tuntia ja 1 minuuttia sitten, kello 11.00 UTC
Ennuste voimassa 19. päivästä klo 12 UTC - 19. päivään klo 19 UTC
Tuuli 5 kn eri suunnista
Näkyvyys 10 km tai enemmän
Hajonneita pilviä 800 ft:n korkeudessa
Ajoittain
19. päivästä klo 12 UTC - 19. päivään klo 19 UTC
Hajanaisia pilviä 800 ft:n korkeudessa
Hajonneita pilviä 2000 ft:n korkeudessa

TAF: ENRO 191100Z 1912/1919 VRB05KT 9999 BKN008 TEMPO 1912/1919 SCT008 BKN020

Säähavainnot ja -ennusteet yli 4000 lentoasemalta (METAR- ja TAF-raportit).

Käytössä olevat sääasemat on merkitty karttaan keltaisilla ja punaisilla pisteillä.

Aseta hiiri pisteen päälle nähdäksesi sääaseman nimen.

Klikkaa sitten nähdäksesi säähavainnot ja -ennusteet.

Kartan vaihtaminen: klikkaa mustalla rastilla varustettuja vihreitä pisteitä, niin voit zoomata sisään; viivalla varustettua vihreää pistettä, niin voit zoomata ulos tai vihreitä nuolia, niin pääset viereisille kartoille.


METAR-TAF: